createdAt,value
2023-04-18T00:00:32.346Z,3.7222222222222854
2023-04-18T00:01:32.336Z,3.7222222222222854
2023-04-18T00:02:32.486Z,3.6111111111111427
2023-04-18T00:03:32.596Z,3.6111111111111427
2023-04-18T00:04:32.390Z,3.6111111111111427
2023-04-18T00:05:32.353Z,3.6111111111111427
2023-04-18T00:06:32.333Z,3.6111111111111427
2023-04-18T00:07:32.350Z,3.6111111111111427
2023-04-18T00:08:32.331Z,3.6111111111111427
2023-04-18T00:09:32.376Z,3.6111111111111427
2023-04-18T00:10:32.311Z,3.500000000000057
2023-04-18T00:11:32.344Z,3.500000000000057
2023-04-18T00:12:32.336Z,3.500000000000057
2023-04-18T00:13:32.352Z,3.500000000000057
2023-04-18T00:14:32.326Z,3.500000000000057
2023-04-18T00:15:32.379Z,3.500000000000057
2023-04-18T00:16:32.352Z,3.500000000000057
2023-04-18T00:17:32.386Z,3.500000000000057
2023-04-18T00:18:32.307Z,3.500000000000057
2023-04-18T00:19:32.339Z,3.500000000000057
2023-04-18T00:20:32.294Z,3.500000000000057
2023-04-18T00:21:32.346Z,3.388888888888971
2023-04-18T00:22:32.328Z,3.388888888888971
2023-04-18T00:23:32.318Z,3.388888888888971
2023-04-18T00:24:32.347Z,3.388888888888971
2023-04-18T00:25:32.373Z,3.388888888888971
2023-04-18T00:26:32.296Z,3.388888888888971
2023-04-18T00:27:32.363Z,3.388888888888971
2023-04-18T00:28:32.318Z,3.2777777777778283
2023-04-18T00:29:32.312Z,3.2777777777778283
2023-04-18T00:30:32.366Z,3.2777777777778283
2023-04-18T00:31:32.367Z,3.2777777777778283
2023-04-18T00:32:32.327Z,3.2777777777778283
2023-04-18T00:33:32.316Z,3.2777777777778283
2023-04-18T00:34:32.293Z,3.2777777777778283
2023-04-18T00:35:32.334Z,3.2777777777778283
2023-04-18T00:36:32.323Z,3.2777777777778283
2023-04-18T00:37:32.314Z,3.2777777777778283
2023-04-18T00:38:32.329Z,3.2777777777778283
2023-04-18T00:39:32.330Z,3.2777777777778283
2023-04-18T00:40:32.297Z,3.2777777777778283
2023-04-18T00:41:32.317Z,3.2777777777778283
2023-04-18T00:42:32.329Z,3.2777777777778283
2023-04-18T00:43:32.348Z,3.2777777777778283
2023-04-18T00:44:32.315Z,3.2777777777778283
2023-04-18T00:45:32.325Z,3.2777777777778283
2023-04-18T00:46:32.380Z,3.2777777777778283
2023-04-18T00:47:32.459Z,3.2777777777778283
2023-04-18T00:48:32.319Z,3.2777777777778283
2023-04-18T00:49:32.345Z,3.2777777777778283
2023-04-18T00:50:32.315Z,3.2777777777778283
2023-04-18T00:51:32.352Z,3.2777777777778283
2023-04-18T00:52:32.325Z,3.2777777777778283
2023-04-18T00:53:32.310Z,3.2222222222222854
2023-04-18T00:54:32.306Z,3.2222222222222854
2023-04-18T00:55:32.335Z,3.2222222222222854
2023-04-18T00:56:32.300Z,3.2222222222222854
2023-04-18T00:57:32.328Z,3.2222222222222854
2023-04-18T00:58:32.307Z,3.2222222222222854
2023-04-18T00:59:32.309Z,3.2222222222222854
2023-04-18T01:00:32.317Z,3.2222222222222854
2023-04-18T01:01:32.357Z,3.2222222222222854
2023-04-18T01:02:32.423Z,3.2222222222222854
2023-04-18T01:03:32.461Z,3.2222222222222854
2023-04-18T01:04:32.483Z,3.2222222222222854
2023-04-18T01:05:32.324Z,3.2222222222222854
2023-04-18T01:06:32.285Z,3.2222222222222854
2023-04-18T01:07:32.350Z,3.1111111111111427
2023-04-18T01:08:32.333Z,3.1111111111111427
2023-04-18T01:09:32.368Z,3.1111111111111427
2023-04-18T01:10:32.308Z,3.1111111111111427
2023-04-18T01:11:32.338Z,3.2222222222222854
2023-04-18T01:12:32.280Z,3.2222222222222854
2023-04-18T01:13:32.310Z,3.2222222222222854
2023-04-18T01:14:32.292Z,3.2222222222222854
2023-04-18T01:15:32.376Z,3.2222222222222854
2023-04-18T01:16:32.324Z,3.2222222222222854
2023-04-18T01:17:32.348Z,3.2222222222222854
2023-04-18T01:18:32.307Z,3.2222222222222854
2023-04-18T01:19:32.339Z,3.2222222222222854
2023-04-18T01:20:32.308Z,3.2222222222222854
2023-04-18T01:21:32.334Z,3.2222222222222854
2023-04-18T01:22:32.335Z,3.2222222222222854
2023-04-18T01:23:32.359Z,3.2222222222222854
2023-04-18T01:24:32.275Z,3.2222222222222854
2023-04-18T01:25:32.307Z,3.2222222222222854
2023-04-18T01:26:32.319Z,3.2222222222222854
2023-04-18T01:27:32.299Z,3.2222222222222854
2023-04-18T01:28:32.344Z,3.1111111111111427
2023-04-18T01:29:32.305Z,3.1111111111111427
2023-04-18T01:30:32.319Z,3.1111111111111427
2023-04-18T01:31:32.316Z,3.1111111111111427
2023-04-18T01:32:32.355Z,3.1111111111111427
2023-04-18T01:33:32.310Z,3.1111111111111427
2023-04-18T01:34:32.322Z,3.1111111111111427
2023-04-18T01:35:32.344Z,3.000000000000057
2023-04-18T01:36:32.325Z,3.000000000000057
2023-04-18T01:37:32.315Z,3.000000000000057
2023-04-18T01:38:32.319Z,3.1111111111111427
2023-04-18T01:39:32.333Z,3.1111111111111427
2023-04-18T01:40:32.449Z,3.1111111111111427
2023-04-18T01:41:32.700Z,3.1111111111111427
2023-04-18T01:42:32.463Z,3.1111111111111427
2023-04-18T01:43:32.483Z,3.1111111111111427
2023-04-18T01:44:32.496Z,3.1111111111111427
2023-04-18T01:45:32.470Z,3.1111111111111427
2023-04-18T01:46:32.513Z,3.000000000000057
2023-04-18T01:47:32.515Z,3.000000000000057
2023-04-18T01:48:32.403Z,3.000000000000057
2023-04-18T01:49:32.418Z,3.000000000000057
2023-04-18T01:50:32.428Z,3.000000000000057
2023-04-18T01:51:32.489Z,3.000000000000057
2023-04-18T01:52:32.484Z,3.000000000000057
2023-04-18T01:53:32.488Z,3.000000000000057
2023-04-18T01:54:32.380Z,3.000000000000057
2023-04-18T01:55:32.437Z,3.000000000000057
2023-04-18T01:56:32.531Z,3.000000000000057
2023-04-18T01:57:32.324Z,3.000000000000057
2023-04-18T01:58:32.337Z,2.888888888888914
2023-04-18T01:59:32.308Z,2.888888888888914
2023-04-18T02:00:32.423Z,2.888888888888914
2023-04-18T02:01:32.401Z,2.888888888888914
2023-04-18T02:02:32.442Z,2.888888888888914
2023-04-18T02:03:32.463Z,2.888888888888914
2023-04-18T02:04:32.326Z,2.888888888888914
2023-04-18T02:05:32.339Z,2.888888888888914
2023-04-18T02:06:32.323Z,2.888888888888914
2023-04-18T02:07:32.284Z,2.888888888888914
2023-04-18T02:08:32.326Z,2.888888888888914
2023-04-18T02:09:32.307Z,2.888888888888914
2023-04-18T02:10:32.300Z,2.888888888888914
2023-04-18T02:11:32.310Z,2.888888888888914
2023-04-18T02:12:32.333Z,2.888888888888914
2023-04-18T02:13:32.317Z,2.888888888888914
2023-04-18T02:14:32.302Z,2.7777777777778283
2023-04-18T02:15:32.312Z,2.7777777777778283
2023-04-18T02:16:32.401Z,2.7777777777778283
2023-04-18T02:17:32.350Z,2.7777777777778283
2023-04-18T02:18:32.310Z,2.7777777777778283
2023-04-18T02:19:32.307Z,2.7777777777778283
2023-04-18T02:20:32.346Z,2.7777777777778283
2023-04-18T02:21:32.319Z,2.7777777777778283
2023-04-18T02:22:32.292Z,2.7777777777778283
2023-04-18T02:23:32.318Z,2.7777777777778283
2023-04-18T02:24:32.245Z,2.7777777777778283
2023-04-18T02:25:32.354Z,2.7777777777778283
2023-04-18T02:26:32.285Z,2.7777777777778283
2023-04-18T02:27:32.300Z,2.7222222222222285
2023-04-18T02:28:32.360Z,2.7777777777778283
2023-04-18T02:29:32.321Z,2.7777777777778283
2023-04-18T02:30:32.322Z,2.7777777777778283
2023-04-18T02:31:32.381Z,2.7777777777778283
2023-04-18T02:32:32.367Z,2.7777777777778283
2023-04-18T02:33:32.430Z,2.7777777777778283
2023-04-18T02:34:32.296Z,2.7777777777778283
2023-04-18T02:35:32.313Z,2.7777777777778283
2023-04-18T02:36:32.317Z,2.7777777777778283
2023-04-18T02:37:32.325Z,2.7777777777778283
2023-04-18T02:38:32.308Z,2.7777777777778283
2023-04-18T02:39:32.331Z,2.7777777777778283
2023-04-18T02:40:32.314Z,2.7777777777778283
2023-04-18T02:41:32.309Z,2.7777777777778283
2023-04-18T02:42:32.299Z,2.7777777777778283
2023-04-18T02:43:32.279Z,2.7777777777778283
2023-04-18T02:44:32.308Z,2.7222222222222285
2023-04-18T02:45:32.321Z,2.7222222222222285
2023-04-18T02:46:32.330Z,2.7222222222222285
2023-04-18T02:47:37.518Z,2.7222222222222285
2023-04-18T02:48:32.460Z,2.7222222222222285
2023-04-18T02:49:32.350Z,2.7222222222222285
2023-04-18T02:50:32.314Z,2.7222222222222285
2023-04-18T02:51:32.315Z,2.7222222222222285
2023-04-18T02:52:32.327Z,2.7222222222222285
2023-04-18T02:53:32.324Z,2.7222222222222285
2023-04-18T02:54:32.262Z,2.7222222222222285
2023-04-18T02:55:32.310Z,2.7222222222222285
2023-04-18T02:56:32.303Z,2.7222222222222285
2023-04-18T02:57:32.311Z,2.6111111111111427
2023-04-18T02:58:32.308Z,2.6111111111111427
2023-04-18T02:59:32.301Z,2.6111111111111427
2023-04-18T03:00:32.355Z,2.6111111111111427
2023-04-18T03:01:32.337Z,2.6111111111111427
2023-04-18T03:02:32.385Z,2.6111111111111427
2023-04-18T03:03:32.351Z,2.6111111111111427
2023-04-18T03:04:32.384Z,2.6111111111111427
2023-04-18T03:05:32.334Z,2.6111111111111427
2023-04-18T03:06:32.304Z,2.6111111111111427
2023-04-18T03:07:32.284Z,2.6111111111111427
2023-04-18T03:08:32.337Z,2.6111111111111427
2023-04-18T03:09:32.283Z,2.6111111111111427
2023-04-18T03:10:32.298Z,2.500000000000057
2023-04-18T03:11:32.374Z,2.500000000000057
2023-04-18T03:12:32.498Z,2.500000000000057
2023-04-18T03:13:32.456Z,2.500000000000057
2023-04-18T03:14:32.395Z,2.500000000000057
2023-04-18T03:15:32.523Z,2.500000000000057
2023-04-18T03:16:32.325Z,2.500000000000057
2023-04-18T03:17:32.382Z,2.500000000000057
2023-04-18T03:18:32.388Z,2.500000000000057
2023-04-18T03:19:32.330Z,2.500000000000057
2023-04-18T03:20:32.431Z,2.388888888888914
2023-04-18T03:21:32.330Z,2.500000000000057
2023-04-18T03:22:32.283Z,2.388888888888914
2023-04-18T03:23:32.304Z,2.388888888888914
2023-04-18T03:24:32.362Z,2.388888888888914
2023-04-18T03:25:32.430Z,2.388888888888914
2023-04-18T03:26:32.476Z,2.388888888888914
2023-04-18T03:27:32.309Z,2.388888888888914
2023-04-18T03:28:32.304Z,2.388888888888914
2023-04-18T03:29:32.311Z,2.388888888888914
2023-04-18T03:30:32.422Z,2.388888888888914
2023-04-18T03:31:32.452Z,2.388888888888914
2023-04-18T03:32:32.305Z,2.388888888888914
2023-04-18T03:33:32.479Z,2.500000000000057
2023-04-18T03:34:32.306Z,2.500000000000057
2023-04-18T03:35:32.455Z,2.388888888888914
2023-04-18T03:36:32.403Z,2.388888888888914
2023-04-18T03:37:32.341Z,2.388888888888914
2023-04-18T03:38:32.307Z,2.388888888888914
2023-04-18T03:39:32.444Z,2.388888888888914
2023-04-18T03:40:32.346Z,2.388888888888914
2023-04-18T03:41:32.293Z,2.388888888888914
2023-04-18T03:42:32.283Z,2.388888888888914
2023-04-18T03:43:32.306Z,2.388888888888914
2023-04-18T03:44:32.376Z,2.388888888888914
2023-04-18T03:45:32.460Z,2.388888888888914
2023-04-18T03:46:32.537Z,2.388888888888914
2023-04-18T03:47:32.402Z,2.388888888888914
2023-04-18T03:48:32.313Z,2.388888888888914
2023-04-18T03:49:32.477Z,2.388888888888914
2023-04-18T03:50:32.458Z,2.388888888888914
2023-04-18T03:51:32.477Z,2.388888888888914
2023-04-18T03:52:32.293Z,2.388888888888914
2023-04-18T03:53:32.314Z,2.388888888888914
2023-04-18T03:54:32.291Z,2.500000000000057
2023-04-18T03:55:32.328Z,2.500000000000057
2023-04-18T03:56:32.300Z,2.500000000000057
2023-04-18T03:57:32.322Z,2.500000000000057
2023-04-18T03:58:32.260Z,2.6111111111111427
2023-04-18T03:59:32.286Z,2.6111111111111427
2023-04-18T04:00:32.497Z,2.6111111111111427
2023-04-18T04:01:32.354Z,2.6111111111111427
2023-04-18T04:02:32.478Z,2.6111111111111427
2023-04-18T04:03:32.465Z,2.6111111111111427
2023-04-18T04:04:32.356Z,2.6111111111111427
2023-04-18T04:05:32.336Z,2.6111111111111427
2023-04-18T04:06:32.295Z,2.7222222222222285
2023-04-18T04:07:32.296Z,2.7222222222222285
2023-04-18T04:08:32.414Z,2.7222222222222285
2023-04-18T04:09:32.327Z,2.7222222222222285
2023-04-18T04:10:32.324Z,2.7222222222222285
2023-04-18T04:11:32.344Z,2.7222222222222285
2023-04-18T04:12:32.310Z,2.7222222222222285
2023-04-18T04:13:32.311Z,2.7222222222222285
2023-04-18T04:14:32.292Z,2.7777777777778283
2023-04-18T04:15:32.320Z,2.7777777777778283
2023-04-18T04:16:32.362Z,2.7777777777778283
2023-04-18T04:17:32.368Z,2.7777777777778283
2023-04-18T04:18:32.293Z,2.7777777777778283
2023-04-18T04:19:32.319Z,2.888888888888914
2023-04-18T04:20:32.314Z,2.888888888888914
2023-04-18T04:21:32.337Z,2.888888888888914
2023-04-18T04:22:32.304Z,2.888888888888914
2023-04-18T04:23:32.299Z,3.000000000000057
2023-04-18T04:24:32.292Z,3.000000000000057
2023-04-18T04:25:32.294Z,3.000000000000057
2023-04-18T04:26:32.319Z,3.1111111111111427
2023-04-18T04:27:32.323Z,3.1111111111111427
2023-04-18T04:28:32.291Z,3.1111111111111427
2023-04-18T04:29:32.311Z,3.1111111111111427
2023-04-18T04:30:32.306Z,3.1111111111111427
2023-04-18T04:31:32.374Z,3.2222222222222854
2023-04-18T04:32:32.663Z,3.2222222222222854
2023-04-18T04:33:32.315Z,3.2222222222222854
2023-04-18T04:34:32.267Z,3.2222222222222854
2023-04-18T04:35:32.303Z,3.2222222222222854
2023-04-18T04:36:32.284Z,3.2222222222222854
2023-04-18T04:37:32.284Z,3.2777777777778283
2023-04-18T04:38:32.277Z,3.2777777777778283
2023-04-18T04:39:32.322Z,3.2777777777778283
2023-04-18T04:40:32.391Z,3.2777777777778283
2023-04-18T04:41:32.321Z,3.388888888888971
2023-04-18T04:42:32.281Z,3.388888888888971
2023-04-18T04:43:32.378Z,3.388888888888971
2023-04-18T04:44:32.363Z,3.388888888888971
2023-04-18T04:45:32.372Z,3.500000000000057
2023-04-18T04:46:32.292Z,3.500000000000057
2023-04-18T04:47:32.345Z,3.500000000000057
2023-04-18T04:48:32.274Z,3.500000000000057
2023-04-18T04:49:32.301Z,3.6111111111111427
2023-04-18T04:50:32.315Z,3.7222222222222854
2023-04-18T04:51:32.327Z,3.7777777777778283
2023-04-18T04:52:32.298Z,3.7777777777778283
2023-04-18T04:53:32.292Z,3.888888888888914
2023-04-18T04:54:32.303Z,4.111111111111143
2023-04-18T04:55:32.339Z,4.111111111111143
2023-04-18T04:56:32.298Z,4.111111111111143
2023-04-18T04:57:32.279Z,4.111111111111143
2023-04-18T04:58:32.291Z,4.111111111111143
2023-04-18T04:59:32.321Z,4.111111111111143
2023-04-18T05:00:32.301Z,4.111111111111143
2023-04-18T05:01:32.347Z,4.277777777777828
2023-04-18T05:02:32.497Z,4.388888888888914
2023-04-18T05:03:32.477Z,4.722222222222285
2023-04-18T05:04:32.409Z,4.722222222222285
2023-04-18T05:05:32.353Z,4.722222222222285
2023-04-18T05:06:32.313Z,4.722222222222285
2023-04-18T05:07:32.354Z,4.777777777777828
2023-04-18T05:08:32.295Z,4.777777777777828
2023-04-18T05:09:32.369Z,4.888888888888914
2023-04-18T05:10:32.294Z,4.888888888888914
2023-04-18T05:11:32.290Z,5.000000000000057
2023-04-18T05:12:32.287Z,5.000000000000057
2023-04-18T05:13:32.323Z,5.111111111111143
2023-04-18T05:14:32.269Z,5.2222222222222285
2023-04-18T05:15:32.297Z,5.277777777777828
2023-04-18T05:16:32.319Z,5.277777777777828
2023-04-18T05:17:32.377Z,5.277777777777828
2023-04-18T05:18:34.826Z,5.2222222222222285
2023-04-18T05:19:32.285Z,5.000000000000057
2023-04-18T05:20:32.280Z,4.888888888888914
2023-04-18T05:21:32.307Z,4.888888888888914
2023-04-18T05:22:32.294Z,4.888888888888914
2023-04-18T05:23:32.308Z,4.888888888888914
2023-04-18T05:24:32.299Z,4.888888888888914
2023-04-18T05:25:32.322Z,4.888888888888914
2023-04-18T05:26:32.307Z,5.000000000000057
2023-04-18T05:27:32.276Z,5.111111111111143
2023-04-18T05:28:32.349Z,5.111111111111143
2023-04-18T05:29:32.278Z,5.2222222222222285
2023-04-18T05:30:32.322Z,5.277777777777828
2023-04-18T05:31:32.407Z,5.277777777777828
2023-04-18T05:32:32.293Z,5.277777777777828
2023-04-18T05:33:32.288Z,5.277777777777828
2023-04-18T05:34:32.307Z,5.277777777777828
2023-04-18T05:35:32.297Z,5.277777777777828
2023-04-18T05:36:32.275Z,5.277777777777828
2023-04-18T05:37:32.285Z,5.277777777777828
2023-04-18T05:38:32.319Z,5.277777777777828
2023-04-18T05:39:32.274Z,5.277777777777828
2023-04-18T05:40:32.323Z,5.388888888888914
2023-04-18T05:41:32.294Z,5.611111111111143
2023-04-18T05:42:32.316Z,5.722222222222285
2023-04-18T05:43:32.273Z,5.888888888888971
2023-04-18T05:44:32.361Z,6.111111111111143
2023-04-18T05:45:32.286Z,6.111111111111143
2023-04-18T05:46:32.369Z,6.111111111111143
2023-04-18T05:47:32.376Z,6.111111111111143
2023-04-18T05:48:32.325Z,6.111111111111143
2023-04-18T05:49:32.290Z,6.111111111111143
2023-04-18T05:50:32.305Z,6.222222222222285
2023-04-18T05:51:32.283Z,6.277777777777828
2023-04-18T05:52:32.302Z,6.277777777777828
2023-04-18T05:53:32.310Z,6.388888888888914
2023-04-18T05:54:32.333Z,6.388888888888914
2023-04-18T05:55:32.287Z,6.388888888888914
2023-04-18T05:56:32.322Z,6.388888888888914
2023-04-18T05:57:32.331Z,6.388888888888914
2023-04-18T05:58:32.328Z,6.277777777777828
2023-04-18T05:59:32.300Z,6.277777777777828
2023-04-18T06:00:32.314Z,6.277777777777828
2023-04-18T06:01:32.303Z,6.388888888888914
2023-04-18T06:02:32.506Z,6.500000000000057
2023-04-18T06:03:32.549Z,6.611111111111143
2023-04-18T06:04:32.466Z,6.611111111111143
2023-04-18T06:05:32.456Z,6.611111111111143
2023-04-18T06:06:32.359Z,6.500000000000057
2023-04-18T06:07:32.304Z,6.500000000000057
2023-04-18T06:08:32.329Z,6.500000000000057
2023-04-18T06:09:32.272Z,6.611111111111143
2023-04-18T06:10:32.309Z,6.777777777777828
2023-04-18T06:11:32.275Z,6.888888888888914
2023-04-18T06:12:32.302Z,6.888888888888914
2023-04-18T06:13:32.262Z,6.777777777777828
2023-04-18T06:14:32.318Z,6.777777777777828
2023-04-18T06:15:32.294Z,6.777777777777828
2023-04-18T06:16:32.363Z,6.888888888888914
2023-04-18T06:17:32.411Z,6.888888888888914
2023-04-18T06:18:32.317Z,6.888888888888914
2023-04-18T06:19:32.293Z,6.888888888888914
2023-04-18T06:20:32.322Z,6.888888888888914
2023-04-18T06:21:32.269Z,6.888888888888914
2023-04-18T06:22:32.337Z,6.888888888888914
2023-04-18T06:23:32.307Z,7.000000000000057
2023-04-18T06:24:32.232Z,7.000000000000057
2023-04-18T06:25:32.418Z,7.000000000000057
2023-04-18T06:26:32.302Z,7.222222222222285
2023-04-18T06:27:32.354Z,7.222222222222285
2023-04-18T06:28:32.281Z,7.222222222222285
2023-04-18T06:29:32.292Z,7.222222222222285
2023-04-18T06:30:32.292Z,7.222222222222285
2023-04-18T06:31:32.369Z,7.277777777777828
2023-04-18T06:32:32.287Z,7.277777777777828
2023-04-18T06:33:32.308Z,7.388888888888914
2023-04-18T06:34:32.279Z,7.500000000000057
2023-04-18T06:35:32.323Z,7.611111111111143
2023-04-18T06:36:32.317Z,7.7222222222222285
2023-04-18T06:37:32.305Z,7.7222222222222285
2023-04-18T06:38:32.311Z,7.611111111111143
2023-04-18T06:39:32.311Z,7.500000000000057
2023-04-18T06:40:33.199Z,7.611111111111143
2023-04-18T06:41:36.668Z,7.7222222222222285
2023-04-18T06:42:40.659Z,7.888888888888914
2023-04-18T06:44:01.616Z,7.888888888888914
2023-04-18T06:44:48.682Z,7.777777777777828
2023-04-18T06:45:52.718Z,7.777777777777828
2023-04-18T06:46:56.715Z,7.888888888888914
2023-04-18T06:48:00.689Z,8.000000000000057
2023-04-18T06:49:04.747Z,8.111111111111143
2023-04-18T06:50:08.627Z,8.222222222222285
2023-04-18T06:51:12.689Z,8.277777777777828
2023-04-18T06:52:16.644Z,8.222222222222285
2023-04-18T06:53:20.669Z,8.111111111111143
2023-04-18T06:54:24.716Z,8.111111111111143
2023-04-18T06:55:28.669Z,8.111111111111143
2023-04-18T06:56:33.477Z,8.222222222222285
2023-04-18T06:57:32.336Z,8.277777777777828
2023-04-18T06:58:32.306Z,8.222222222222285
2023-04-18T06:59:32.282Z,8.111111111111143
2023-04-18T07:00:32.296Z,8.111111111111143
2023-04-18T07:01:32.326Z,8.222222222222285
2023-04-18T07:02:32.417Z,8.277777777777828
2023-04-18T07:03:32.365Z,8.277777777777828
2023-04-18T07:04:32.292Z,8.388888888888971
2023-04-18T07:05:32.268Z,8.388888888888971
2023-04-18T07:06:32.254Z,8.500000000000057
2023-04-18T07:07:32.303Z,8.500000000000057
2023-04-18T07:08:32.293Z,8.500000000000057
2023-04-18T07:09:32.288Z,8.500000000000057
2023-04-18T07:10:32.273Z,8.611111111111143
2023-04-18T07:11:32.293Z,8.611111111111143
2023-04-18T07:12:32.336Z,8.611111111111143
2023-04-18T07:13:32.331Z,8.611111111111143
2023-04-18T07:14:34.121Z,8.611111111111143
2023-04-18T07:15:32.336Z,8.611111111111143
2023-04-18T07:16:32.344Z,8.611111111111143
2023-04-18T07:17:32.313Z,8.611111111111143
2023-04-18T07:18:37.938Z,8.611111111111143
2023-04-18T07:19:32.301Z,8.777777777777828
2023-04-18T07:20:32.256Z,8.777777777777828
2023-04-18T07:21:32.310Z,8.777777777777828
2023-04-18T07:22:32.258Z,8.888888888888914
2023-04-18T07:23:32.287Z,8.888888888888914
2023-04-18T07:24:32.259Z,9.000000000000057
2023-04-18T07:25:32.298Z,9.111111111111143
2023-04-18T07:26:32.248Z,9.111111111111143
2023-04-18T07:27:32.262Z,9.222222222222285
2023-04-18T07:28:32.266Z,9.277777777777828
2023-04-18T07:29:32.282Z,9.277777777777828
2023-04-18T07:30:32.296Z,9.500000000000057
2023-04-18T07:31:32.315Z,9.500000000000057
2023-04-18T07:32:32.282Z,9.500000000000057
2023-04-18T07:33:32.349Z,9.611111111111143
2023-04-18T07:34:32.258Z,9.777777777777828
2023-04-18T07:35:32.294Z,9.888888888888914
2023-04-18T07:36:32.282Z,10.000000000000057
2023-04-18T07:37:32.291Z,10.222222222222229
2023-04-18T07:38:32.292Z,10.277777777777828
2023-04-18T07:39:32.278Z,10.277777777777828
2023-04-18T07:40:32.317Z,10.222222222222229
2023-04-18T07:41:32.323Z,10.222222222222229
2023-04-18T07:42:32.268Z,10.277777777777828
2023-04-18T07:43:32.294Z,10.500000000000057
2023-04-18T07:44:32.237Z,10.722222222222285
2023-04-18T07:45:32.260Z,10.777777777777828
2023-04-18T07:46:32.417Z,10.722222222222285
2023-04-18T07:47:33.030Z,10.722222222222285
2023-04-18T07:48:32.295Z,10.722222222222285
2023-04-18T07:49:32.301Z,10.722222222222285
2023-04-18T07:50:32.292Z,10.888888888888971
2023-04-18T07:51:32.284Z,10.888888888888971
2023-04-18T07:52:32.275Z,11.000000000000057
2023-04-18T07:53:32.356Z,11.000000000000057
2023-04-18T07:54:32.301Z,11.277777777777828
2023-04-18T07:55:32.339Z,11.500000000000057
2023-04-18T07:56:32.239Z,11.6111111111112
2023-04-18T07:57:32.286Z,11.6111111111112
2023-04-18T07:58:32.253Z,11.500000000000057
2023-04-18T07:59:32.299Z,11.500000000000057
2023-04-18T08:00:32.268Z,11.6111111111112
2023-04-18T08:01:32.338Z,11.722222222222229
2023-04-18T08:02:32.401Z,11.777777777777828
2023-04-18T08:03:32.358Z,11.888888888888971
2023-04-18T08:04:32.407Z,11.888888888888971
2023-04-18T08:05:32.630Z,11.888888888888971
2023-04-18T08:06:32.282Z,11.888888888888971
2023-04-18T08:07:32.353Z,12
2023-04-18T08:08:32.274Z,12
2023-04-18T08:09:32.333Z,11.888888888888971
2023-04-18T08:10:32.286Z,11.777777777777828
2023-04-18T08:11:32.287Z,11.777777777777828
2023-04-18T08:12:32.315Z,11.777777777777828
2023-04-18T08:13:32.311Z,11.777777777777828
2023-04-18T08:14:32.265Z,11.722222222222229
2023-04-18T08:15:32.324Z,11.722222222222229
2023-04-18T08:16:32.341Z,11.777777777777828
2023-04-18T08:17:32.307Z,11.777777777777828
2023-04-18T08:18:32.258Z,11.888888888888971
2023-04-18T08:19:32.276Z,12.111111111111143
2023-04-18T08:20:32.267Z,12.222222222222285
2023-04-18T08:21:32.311Z,12.388888888888914
2023-04-18T08:22:32.253Z,12.388888888888914
2023-04-18T08:23:32.426Z,12.500000000000057
2023-04-18T08:24:32.246Z,12.500000000000057
2023-04-18T08:25:32.275Z,12.722222222222285
2023-04-18T08:26:32.282Z,12.777777777777828
2023-04-18T08:27:32.299Z,12.777777777777828
2023-04-18T08:28:32.296Z,12.722222222222285
2023-04-18T08:29:32.267Z,12.611111111111143
2023-04-18T08:30:32.302Z,12.500000000000057
2023-04-18T08:31:32.307Z,12.388888888888914
2023-04-18T08:32:32.351Z,12.388888888888914
2023-04-18T08:33:32.339Z,12.277777777777828
2023-04-18T08:34:32.280Z,12.222222222222285
2023-04-18T08:35:32.325Z,12.111111111111143
2023-04-18T08:36:32.308Z,12.222222222222285
2023-04-18T08:37:32.254Z,12.277777777777828
2023-04-18T08:38:32.274Z,12.277777777777828
2023-04-18T08:39:32.264Z,12.277777777777828
2023-04-18T08:40:32.288Z,12.277777777777828
2023-04-18T08:41:32.270Z,12.277777777777828
2023-04-18T08:42:32.265Z,12.388888888888914
2023-04-18T08:43:32.301Z,12.500000000000057
2023-04-18T08:44:32.312Z,12.611111111111143
2023-04-18T08:45:32.279Z,12.722222222222285
2023-04-18T08:46:32.273Z,12.777777777777828
2023-04-18T08:47:32.372Z,13.000000000000057
2023-04-18T08:48:32.297Z,13.000000000000057
2023-04-18T08:49:32.282Z,12.777777777777828
2023-04-18T08:50:32.637Z,12.500000000000057
2023-04-18T08:51:32.255Z,12.500000000000057
2023-04-18T08:52:32.306Z,12.722222222222285
2023-04-18T08:53:32.250Z,13.111111111111143
2023-04-18T08:54:32.323Z,13.222222222222285
2023-04-18T08:55:32.258Z,13.222222222222285
2023-04-18T08:56:32.263Z,13.111111111111143
2023-04-18T08:57:32.297Z,13.111111111111143
2023-04-18T08:58:32.266Z,13.111111111111143
2023-04-18T08:59:32.282Z,13.111111111111143
2023-04-18T09:00:32.296Z,13.111111111111143
2023-04-18T09:01:32.395Z,12.888888888888914
2023-04-18T09:02:32.364Z,12.888888888888914
2023-04-18T09:03:32.366Z,12.888888888888914
2023-04-18T09:04:32.305Z,13.111111111111143
2023-04-18T09:05:32.251Z,13.111111111111143
2023-04-18T09:06:32.301Z,13.000000000000057
2023-04-18T09:07:32.253Z,13.111111111111143
2023-04-18T09:08:32.285Z,13.222222222222285
2023-04-18T09:09:32.284Z,13.222222222222285
2023-04-18T09:10:32.325Z,12.777777777777828
2023-04-18T09:11:32.303Z,12.777777777777828
2023-04-18T09:12:32.279Z,12.777777777777828